sensor_id;sensor_type;location;lat;lon;timestamp;pressure;altitude;pressure_sealevel;temperature;humidity
61524;BME280;47393;38.758;-9.164;2022-08-19T00:01:20;100471.47;;;21.40;42.95
61524;BME280;47393;38.758;-9.164;2022-08-19T00:03:21;100468.31;;;21.30;43.18
61524;BME280;47393;38.758;-9.164;2022-08-19T00:05:22;100461.56;;;21.34;42.91
61524;BME280;47393;38.758;-9.164;2022-08-19T00:07:23;100463.81;;;21.31;42.77
61524;BME280;47393;38.758;-9.164;2022-08-19T00:09:24;100465.69;;;21.37;42.58
61524;BME280;47393;38.758;-9.164;2022-08-19T00:11:25;100465.16;;;21.20;42.96
61524;BME280;47393;38.758;-9.164;2022-08-19T00:13:26;100449.00;;;21.06;43.13
61524;BME280;47393;38.758;-9.164;2022-08-19T00:15:27;100467.63;;;21.21;43.13
61524;BME280;47393;38.758;-9.164;2022-08-19T00:17:28;100449.69;;;21.15;42.94
61524;BME280;47393;38.758;-9.164;2022-08-19T00:19:30;100460.00;;;21.18;43.05
61524;BME280;47393;38.758;-9.164;2022-08-19T00:21:31;100457.00;;;21.06;43.17
61524;BME280;47393;38.758;-9.164;2022-08-19T00:23:32;100453.81;;;21.18;43.05
61524;BME280;47393;38.758;-9.164;2022-08-19T00:25:32;100439.75;;;21.09;42.90
61524;BME280;47393;38.758;-9.164;2022-08-19T00:27:34;100432.06;;;20.99;42.62
61524;BME280;47393;38.758;-9.164;2022-08-19T00:29:37;100460.81;;;20.97;43.33
61524;BME280;47393;38.758;-9.164;2022-08-19T00:31:39;100467.81;;;20.98;43.41
61524;BME280;47393;38.758;-9.164;2022-08-19T00:33:40;100462.28;;;21.00;43.44
61524;BME280;47393;38.758;-9.164;2022-08-19T00:35:40;100456.75;;;21.01;43.50
61524;BME280;47393;38.758;-9.164;2022-08-19T00:37:41;100447.72;;;20.81;43.52
61524;BME280;47393;38.758;-9.164;2022-08-19T00:39:42;100458.03;;;20.84;43.84
61524;BME280;47393;38.758;-9.164;2022-08-19T00:41:44;100452.91;;;20.89;43.91
61524;BME280;47393;38.758;-9.164;2022-08-19T00:44:04;100456.56;;;20.81;43.82
61524;BME280;47393;38.758;-9.164;2022-08-19T00:46:05;100467.00;;;20.76;44.06
61524;BME280;47393;38.758;-9.164;2022-08-19T00:48:06;100461.66;;;20.76;44.06
61524;BME280;47393;38.758;-9.164;2022-08-19T00:50:08;100451.00;;;21.04;43.34
61524;BME280;47393;38.758;-9.164;2022-08-19T00:52:15;100460.03;;;20.82;43.60
61524;BME280;47393;38.758;-9.164;2022-08-19T00:54:17;100466.66;;;20.86;43.75
61524;BME280;47393;38.758;-9.164;2022-08-19T00:56:18;100458.41;;;20.66;44.16
61524;BME280;47393;38.758;-9.164;2022-08-19T00:58:21;100452.63;;;20.62;44.19
61524;BME280;47393;38.758;-9.164;2022-08-19T01:00:25;100456.41;;;20.53;44.60
61524;BME280;47393;38.758;-9.164;2022-08-19T01:02:28;100460.44;;;20.64;44.53
61524;BME280;47393;38.758;-9.164;2022-08-19T01:04:29;100430.03;;;20.43;44.41
61524;BME280;47393;38.758;-9.164;2022-08-19T01:06:32;100449.25;;;20.38;45.35
61524;BME280;47393;38.758;-9.164;2022-08-19T01:08:33;100444.25;;;20.14;45.49
61524;BME280;47393;38.758;-9.164;2022-08-19T01:10:41;100454.47;;;20.10;45.70
61524;BME280;47393;38.758;-9.164;2022-08-19T01:12:43;100449.31;;;19.94;46.42
61524;BME280;47393;38.758;-9.164;2022-08-19T01:14:45;100452.91;;;19.86;47.72
61524;BME280;47393;38.758;-9.164;2022-08-19T01:16:46;100459.03;;;19.71;47.25
61524;BME280;47393;38.758;-9.164;2022-08-19T01:18:47;100451.13;;;19.63;47.39
61524;BME280;47393;38.758;-9.164;2022-08-19T01:20:48;100458.88;;;19.88;46.85
61524;BME280;47393;38.758;-9.164;2022-08-19T01:22:55;100450.59;;;19.83;46.98
61524;BME280;47393;38.758;-9.164;2022-08-19T01:24:56;100456.81;;;19.75;47.13
61524;BME280;47393;38.758;-9.164;2022-08-19T01:26:57;100449.25;;;19.64;47.65
61524;BME280;47393;38.758;-9.164;2022-08-19T01:28:59;100432.25;;;19.65;47.10
61524;BME280;47393;38.758;-9.164;2022-08-19T01:31:00;100445.41;;;19.66;47.95
61524;BME280;47393;38.758;-9.164;2022-08-19T01:33:02;100427.06;;;19.33;48.13
61524;BME280;47393;38.758;-9.164;2022-08-19T01:35:04;100445.91;;;19.32;48.39
61524;BME280;47393;38.758;-9.164;2022-08-19T01:37:08;100435.97;;;19.26;49.01
61524;BME280;47393;38.758;-9.164;2022-08-19T01:39:12;100447.69;;;19.54;48.14
61524;BME280;47393;38.758;-9.164;2022-08-19T01:41:14;100437.59;;;19.65;47.50
61524;BME280;47393;38.758;-9.164;2022-08-19T01:43:15;100438.88;;;19.69;47.71
61524;BME280;47393;38.758;-9.164;2022-08-19T01:45:18;100438.50;;;19.72;47.84
61524;BME280;47393;38.758;-9.164;2022-08-19T01:47:19;100398.47;;;19.42;47.75
61524;BME280;47393;38.758;-9.164;2022-08-19T01:49:22;100425.34;;;19.70;47.58
61524;BME280;47393;38.758;-9.164;2022-08-19T01:51:23;100438.53;;;19.87;47.13
61524;BME280;47393;38.758;-9.164;2022-08-19T01:53:24;100438.34;;;19.88;46.94
61524;BME280;47393;38.758;-9.164;2022-08-19T01:55:25;100441.56;;;20.14;46.59
61524;BME280;47393;38.758;-9.164;2022-08-19T01:57:26;100443.97;;;20.09;46.41
61524;BME280;47393;38.758;-9.164;2022-08-19T01:59:30;100440.03;;;20.04;46.89
61524;BME280;47393;38.758;-9.164;2022-08-19T02:01:32;100438.09;;;19.83;47.36
61524;BME280;47393;38.758;-9.164;2022-08-19T02:03:36;100434.56;;;19.83;47.19
61524;BME280;47393;38.758;-9.164;2022-08-19T02:05:38;100431.06;;;19.67;47.38
61524;BME280;47393;38.758;-9.164;2022-08-19T02:07:40;100433.25;;;19.49;48.18
61524;BME280;47393;38.758;-9.164;2022-08-19T02:09:41;100420.78;;;19.26;48.22
61524;BME280;47393;38.758;-9.164;2022-08-19T02:11:42;100446.34;;;19.35;48.64
61524;BME280;47393;38.758;-9.164;2022-08-19T02:13:43;100435.31;;;19.00;49.49
61524;BME280;47393;38.758;-9.164;2022-08-19T02:15:44;100433.06;;;19.12;49.35
61524;BME280;47393;38.758;-9.164;2022-08-19T02:17:45;100430.06;;;18.92;49.68
61524;BME280;47393;38.758;-9.164;2022-08-19T02:19:46;100449.19;;;18.96;49.79
61524;BME280;47393;38.758;-9.164;2022-08-19T02:21:46;100433.47;;;19.01;49.92
61524;BME280;47393;38.758;-9.164;2022-08-19T02:23:48;100428.50;;;18.98;49.71
61524;BME280;47393;38.758;-9.164;2022-08-19T02:25:50;100426.09;;;19.11;49.50
61524;BME280;47393;38.758;-9.164;2022-08-19T02:27:54;100424.44;;;19.10;49.51
61524;BME280;47393;38.758;-9.164;2022-08-19T02:29:55;100380.09;;;18.86;49.33
61524;BME280;47393;38.758;-9.164;2022-08-19T02:31:56;100426.09;;;18.88;50.22
61524;BME280;47393;38.758;-9.164;2022-08-19T02:33:57;100437.34;;;18.98;50.35
61524;BME280;47393;38.758;-9.164;2022-08-19T02:35:57;100425.00;;;18.74;50.88
61524;BME280;47393;38.758;-9.164;2022-08-19T02:37:58;100430.66;;;18.71;50.46
61524;BME280;47393;38.758;-9.164;2022-08-19T02:40:17;100439.72;;;18.85;50.57
61524;BME280;47393;38.758;-9.164;2022-08-19T02:42:18;100420.97;;;18.78;50.92
61524;BME280;47393;38.758;-9.164;2022-08-19T02:44:19;100432.75;;;18.84;50.57
61524;BME280;47393;38.758;-9.164;2022-08-19T02:46:23;100436.84;;;18.72;51.24
61524;BME280;47393;38.758;-9.164;2022-08-19T02:48:25;100428.44;;;18.60;51.89
61524;BME280;47393;38.758;-9.164;2022-08-19T02:50:25;100437.59;;;18.57;52.24
61524;BME280;47393;38.758;-9.164;2022-08-19T02:52:26;100412.91;;;18.32;52.85
61524;BME280;47393;38.758;-9.164;2022-08-19T02:54:27;100438.19;;;18.36;52.25
61524;BME280;47393;38.758;-9.164;2022-08-19T02:56:28;100441.84;;;18.35;52.72
61524;BME280;47393;38.758;-9.164;2022-08-19T02:58:29;100425.66;;;18.13;53.39
61524;BME280;47393;38.758;-9.164;2022-08-19T03:00:30;100427.50;;;18.05;53.93
61524;BME280;47393;38.758;-9.164;2022-08-19T03:02:31;100430.56;;;17.77;55.95
61524;BME280;47393;38.758;-9.164;2022-08-19T03:04:31;100419.81;;;17.54;55.68
61524;BME280;47393;38.758;-9.164;2022-08-19T03:06:36;100436.91;;;17.59;55.70
61524;BME280;47393;38.758;-9.164;2022-08-19T03:08:39;100437.56;;;17.70;55.51
61524;BME280;47393;38.758;-9.164;2022-08-19T03:10:47;100436.91;;;17.59;55.74
61524;BME280;47393;38.758;-9.164;2022-08-19T03:12:48;100436.31;;;17.41;56.14
61524;BME280;47393;38.758;-9.164;2022-08-19T03:14:52;100413.06;;;17.18;56.56
61524;BME280;47393;38.758;-9.164;2022-08-19T03:16:55;100427.84;;;17.21;58.08
61524;BME280;47393;38.758;-9.164;2022-08-19T03:18:56;100429.81;;;17.10;57.41
61524;BME280;47393;38.758;-9.164;2022-08-19T03:20:57;100421.16;;;16.84;58.05
61524;BME280;47393;38.758;-9.164;2022-08-19T03:22:58;100430.31;;;16.89;58.14
61524;BME280;47393;38.758;-9.164;2022-08-19T03:24:59;100440.09;;;16.97;58.09
61524;BME280;47393;38.758;-9.164;2022-08-19T03:27:00;100436.47;;;16.98;58.31
61524;BME280;47393;38.758;-9.164;2022-08-19T03:29:03;100437.94;;;16.92;58.90
61524;BME280;47393;38.758;-9.164;2022-08-19T03:31:07;100430.91;;;16.67;59.36
61524;BME280;47393;38.758;-9.164;2022-08-19T03:33:09;100441.78;;;16.98;59.71
61524;BME280;47393;38.758;-9.164;2022-08-19T03:35:10;100426.91;;;16.63;60.29
61524;BME280;47393;38.758;-9.164;2022-08-19T03:37:11;100444.88;;;16.77;60.44
61524;BME280;47393;38.758;-9.164;2022-08-19T03:39:13;100416.94;;;16.48;61.07
61524;BME280;47393;38.758;-9.164;2022-08-19T03:41:17;100445.47;;;16.54;61.36
61524;BME280;47393;38.758;-9.164;2022-08-19T03:43:18;100435.16;;;16.35;61.71
61524;BME280;47393;38.758;-9.164;2022-08-19T03:45:19;100440.47;;;16.35;62.10
61524;BME280;47393;38.758;-9.164;2022-08-19T03:47:20;100435.06;;;16.18;62.33
61524;BME280;47393;38.758;-9.164;2022-08-19T03:49:22;100431.78;;;16.24;62.69
61524;BME280;47393;38.758;-9.164;2022-08-19T03:51:26;100438.09;;;16.32;63.37
61524;BME280;47393;38.758;-9.164;2022-08-19T03:53:28;100444.13;;;16.42;62.67
61524;BME280;47393;38.758;-9.164;2022-08-19T03:55:29;100427.13;;;16.18;62.98
61524;BME280;47393;38.758;-9.164;2022-08-19T03:57:30;100424.81;;;16.23;63.52
61524;BME280;47393;38.758;-9.164;2022-08-19T03:59:38;100456.75;;;16.48;63.03
61524;BME280;47393;38.758;-9.164;2022-08-19T04:01:39;100434.31;;;16.34;62.89
61524;BME280;47393;38.758;-9.164;2022-08-19T04:03:40;100443.13;;;16.43;63.66
61524;BME280;47393;38.758;-9.164;2022-08-19T04:05:41;100450.72;;;16.30;63.75
61524;BME280;47393;38.758;-9.164;2022-08-19T04:07:42;100415.59;;;16.01;64.18
61524;BME280;47393;38.758;-9.164;2022-08-19T04:09:43;100427.81;;;16.29;64.13
61524;BME280;47393;38.758;-9.164;2022-08-19T04:11:50;100433.69;;;16.49;64.11
61524;BME280;47393;38.758;-9.164;2022-08-19T04:13:52;100444.34;;;16.65;61.73
61524;BME280;47393;38.758;-9.164;2022-08-19T04:15:53;100443.94;;;17.36;59.03
61524;BME280;47393;38.758;-9.164;2022-08-19T04:17:53;100442.00;;;18.42;55.56
61524;BME280;47393;38.758;-9.164;2022-08-19T04:19:54;100448.09;;;19.28;51.31
61524;BME280;47393;38.758;-9.164;2022-08-19T04:21:55;100441.44;;;19.47;50.85
61524;BME280;47393;38.758;-9.164;2022-08-19T04:23:57;100435.38;;;19.68;48.70
61524;BME280;47393;38.758;-9.164;2022-08-19T04:25:58;100458.81;;;19.96;48.67
61524;BME280;47393;38.758;-9.164;2022-08-19T04:27:58;100457.00;;;19.74;49.30
61524;BME280;47393;38.758;-9.164;2022-08-19T04:29:59;100456.38;;;19.71;48.61
61524;BME280;47393;38.758;-9.164;2022-08-19T04:32:00;100465.78;;;20.12;47.23
61524;BME280;47393;38.758;-9.164;2022-08-19T04:34:04;100467.25;;;20.00;47.31
61524;BME280;47393;38.758;-9.164;2022-08-19T04:36:05;100457.31;;;19.94;46.77
61524;BME280;47393;38.758;-9.164;2022-08-19T04:38:06;100464.69;;;19.92;46.83
61524;BME280;47393;38.758;-9.164;2022-08-19T04:40:08;100462.53;;;19.72;48.09
61524;BME280;47393;38.758;-9.164;2022-08-19T04:42:27;100458.28;;;19.63;47.12
61524;BME280;47393;38.758;-9.164;2022-08-19T04:44:40;100447.34;;;19.58;46.94
61524;BME280;47393;38.758;-9.164;2022-08-19T04:46:40;100456.16;;;19.58;47.10
61524;BME280;47393;38.758;-9.164;2022-08-19T04:48:41;100447.75;;;19.84;45.63
61524;BME280;47393;38.758;-9.164;2022-08-19T04:50:42;100464.31;;;20.10;46.11
61524;BME280;47393;38.758;-9.164;2022-08-19T04:52:43;100452.28;;;19.99;44.69
61524;BME280;47393;38.758;-9.164;2022-08-19T04:54:44;100464.59;;;20.15;44.86
61524;BME280;47393;38.758;-9.164;2022-08-19T04:56:45;100464.59;;;20.15;44.31
61524;BME280;47393;38.758;-9.164;2022-08-19T04:58:46;100464.06;;;20.04;43.90
61524;BME280;47393;38.758;-9.164;2022-08-19T05:00:47;100454.75;;;20.00;43.96
61524;BME280;47393;38.758;-9.164;2022-08-19T05:02:48;100459.38;;;19.92;44.18
61524;BME280;47393;38.758;-9.164;2022-08-19T05:04:48;100473.75;;;19.67;44.17
61524;BME280;47393;38.758;-9.164;2022-08-19T05:06:49;100465.28;;;19.64;44.56
61524;BME280;47393;38.758;-9.164;2022-08-19T05:08:50;100448.03;;;19.36;45.38
61524;BME280;47393;38.758;-9.164;2022-08-19T05:10:51;100474.97;;;19.80;43.61
61524;BME280;47393;38.758;-9.164;2022-08-19T05:12:52;100446.41;;;19.65;44.21
61524;BME280;47393;38.758;-9.164;2022-08-19T05:14:59;100457.75;;;19.67;43.79
61524;BME280;47393;38.758;-9.164;2022-08-19T05:17:00;100467.06;;;20.01;42.61
61524;BME280;47393;38.758;-9.164;2022-08-19T05:19:01;100457.94;;;20.40;41.80
61524;BME280;47393;38.758;-9.164;2022-08-19T05:21:22;100454.00;;;20.58;41.26
61524;BME280;47393;38.758;-9.164;2022-08-19T05:23:41;100459.09;;;20.89;40.39
61524;BME280;47393;38.758;-9.164;2022-08-19T05:25:42;100462.84;;;20.73;40.49
61524;BME280;47393;38.758;-9.164;2022-08-19T05:27:43;100464.97;;;20.63;40.60
61524;BME280;47393;38.758;-9.164;2022-08-19T05:29:43;100449.88;;;20.55;40.46
61524;BME280;47393;38.758;-9.164;2022-08-19T05:31:45;100464.31;;;20.76;39.97
61524;BME280;47393;38.758;-9.164;2022-08-19T05:33:47;100459.41;;;21.01;39.16
61524;BME280;47393;38.758;-9.164;2022-08-19T05:35:49;100469.81;;;21.11;38.85
61524;BME280;47393;38.758;-9.164;2022-08-19T05:37:49;100445.66;;;21.04;38.82
61524;BME280;47393;38.758;-9.164;2022-08-19T05:39:52;100477.94;;;21.24;38.71
61524;BME280;47393;38.758;-9.164;2022-08-19T05:41:59;100486.53;;;21.20;38.33
61524;BME280;47393;38.758;-9.164;2022-08-19T05:44:04;100489.28;;;21.26;38.33
61524;BME280;47393;38.758;-9.164;2022-08-19T05:46:06;100478.06;;;21.38;38.18
61524;BME280;47393;38.758;-9.164;2022-08-19T05:48:07;100487.69;;;21.32;37.99
61524;BME280;47393;38.758;-9.164;2022-08-19T05:50:08;100497.88;;;21.00;38.99
61524;BME280;47393;38.758;-9.164;2022-08-19T05:52:12;100485.88;;;20.74;39.38
61524;BME280;47393;38.758;-9.164;2022-08-19T05:54:13;100500.31;;;20.80;39.17
61524;BME280;47393;38.758;-9.164;2022-08-19T05:56:15;100498.34;;;20.89;39.13
61524;BME280;47393;38.758;-9.164;2022-08-19T05:58:17;100488.00;;;20.79;39.22
61524;BME280;47393;38.758;-9.164;2022-08-19T06:00:17;100492.78;;;21.05;38.54
61524;BME280;47393;38.758;-9.164;2022-08-19T06:02:18;100483.59;;;20.93;38.69
61524;BME280;47393;38.758;-9.164;2022-08-19T06:04:20;100489.91;;;21.29;38.24
61524;BME280;47393;38.758;-9.164;2022-08-19T06:06:21;100495.88;;;21.74;37.22
61524;BME280;47393;38.758;-9.164;2022-08-19T06:08:22;100507.31;;;22.31;36.21
61524;BME280;47393;38.758;-9.164;2022-08-19T06:10:23;100503.19;;;22.84;35.38
61524;BME280;47393;38.758;-9.164;2022-08-19T06:12:24;100515.69;;;23.38;34.33
61524;BME280;47393;38.758;-9.164;2022-08-19T06:14:28;100517.34;;;23.86;33.25
61524;BME280;47393;38.758;-9.164;2022-08-19T06:16:30;100514.81;;;24.18;32.64
61524;BME280;47393;38.758;-9.164;2022-08-19T06:18:30;100515.69;;;24.57;31.76
61524;BME280;47393;38.758;-9.164;2022-08-19T06:20:31;100517.91;;;25.12;30.94
61524;BME280;47393;38.758;-9.164;2022-08-19T06:22:37;100463.59;;;24.97;30.45
61524;BME280;47393;38.758;-9.164;2022-08-19T06:24:38;100517.31;;;25.42;30.83
61524;BME280;47393;38.758;-9.164;2022-08-19T06:26:43;100509.75;;;26.38;29.62
61524;BME280;47393;38.758;-9.164;2022-08-19T06:29:08;100515.50;;;26.42;28.66
61524;BME280;47393;38.758;-9.164;2022-08-19T06:31:09;100529.91;;;26.85;28.63
61524;BME280;47393;38.758;-9.164;2022-08-19T06:33:10;100533.84;;;27.01;28.24
61524;BME280;47393;38.758;-9.164;2022-08-19T06:35:11;100523.34;;;27.23;27.37
61524;BME280;47393;38.758;-9.164;2022-08-19T06:37:12;100519.28;;;28.15;26.47
61524;BME280;47393;38.758;-9.164;2022-08-19T06:39:16;100526.88;;;28.82;25.69
61524;BME280;47393;38.758;-9.164;2022-08-19T06:41:17;100527.50;;;28.61;25.26
61524;BME280;47393;38.758;-9.164;2022-08-19T06:43:18;100542.75;;;29.08;25.56
61524;BME280;47393;38.758;-9.164;2022-08-19T06:45:19;100534.34;;;29.89;24.00
61524;BME280;47393;38.758;-9.164;2022-08-19T06:47:20;100540.25;;;29.69;23.85
61524;BME280;47393;38.758;-9.164;2022-08-19T06:49:22;100532.78;;;28.79;24.99
61524;BME280;47393;38.758;-9.164;2022-08-19T06:51:24;100530.84;;;28.92;24.94
61524;BME280;47393;38.758;-9.164;2022-08-19T06:53:25;100518.44;;;29.25;24.77
61524;BME280;47393;38.758;-9.164;2022-08-19T06:55:26;100541.75;;;30.60;23.55
61524;BME280;47393;38.758;-9.164;2022-08-19T06:57:27;100550.75;;;30.88;23.20
61524;BME280;47393;38.758;-9.164;2022-08-19T06:59:29;100548.56;;;30.85;23.21
61524;BME280;47393;38.758;-9.164;2022-08-19T07:01:41;100526.81;;;31.45;22.06
61524;BME280;47393;38.758;-9.164;2022-08-19T07:03:45;100544.63;;;31.25;22.16
61524;BME280;47393;38.758;-9.164;2022-08-19T07:05:46;100558.41;;;31.51;21.64
61524;BME280;47393;38.758;-9.164;2022-08-19T07:07:46;100561.72;;;30.49;22.94
61524;BME280;47393;38.758;-9.164;2022-08-19T07:09:49;100559.16;;;30.59;23.29
61524;BME280;47393;38.758;-9.164;2022-08-19T07:11:52;100560.56;;;31.49;21.94
61524;BME280;47393;38.758;-9.164;2022-08-19T07:13:53;100560.53;;;31.11;22.56
61524;BME280;47393;38.758;-9.164;2022-08-19T07:15:54;100559.78;;;31.53;21.69
61524;BME280;47393;38.758;-9.164;2022-08-19T07:17:55;100568.91;;;31.37;22.03
61524;BME280;47393;38.758;-9.164;2022-08-19T07:19:55;100548.44;;;30.08;23.46
61524;BME280;47393;38.758;-9.164;2022-08-19T07:21:57;100579.84;;;30.65;22.89
61524;BME280;47393;38.758;-9.164;2022-08-19T07:23:59;100583.53;;;29.81;23.73
61524;BME280;47393;38.758;-9.164;2022-08-19T07:26:18;100567.41;;;30.69;23.18
61524;BME280;47393;38.758;-9.164;2022-08-19T07:28:19;100570.44;;;30.12;23.25
61524;BME280;47393;38.758;-9.164;2022-08-19T07:30:20;100571.88;;;30.59;23.20
61524;BME280;47393;38.758;-9.164;2022-08-19T07:32:21;100573.78;;;30.58;23.47
61524;BME280;47393;38.758;-9.164;2022-08-19T07:34:27;100578.50;;;30.68;23.14
61524;BME280;47393;38.758;-9.164;2022-08-19T07:36:29;100584.19;;;29.71;24.18
61524;BME280;47393;38.758;-9.164;2022-08-19T07:38:30;100573.34;;;30.05;23.50
61524;BME280;47393;38.758;-9.164;2022-08-19T07:40:31;100577.22;;;30.76;23.32
61524;BME280;47393;38.758;-9.164;2022-08-19T07:42:40;100563.59;;;30.26;23.79
61524;BME280;47393;38.758;-9.164;2022-08-19T07:44:41;100577.41;;;31.83;22.33
61524;BME280;47393;38.758;-9.164;2022-08-19T07:46:45;100589.03;;;31.41;22.29
61524;BME280;47393;38.758;-9.164;2022-08-19T07:48:48;100582.59;;;30.70;23.33
61524;BME280;47393;38.758;-9.164;2022-08-19T07:50:50;100571.94;;;30.64;23.36
61524;BME280;47393;38.758;-9.164;2022-08-19T07:52:50;100573.09;;;30.95;22.84
61524;BME280;47393;38.758;-9.164;2022-08-19T07:54:51;100579.44;;;31.33;22.72
61524;BME280;47393;38.758;-9.164;2022-08-19T07:56:53;100581.63;;;31.31;22.21
61524;BME280;47393;38.758;-9.164;2022-08-19T07:58:56;100575.19;;;31.75;22.56
61524;BME280;47393;38.758;-9.164;2022-08-19T08:01:07;100570.94;;;30.97;22.92
61524;BME280;47393;38.758;-9.164;2022-08-19T08:03:10;100568.50;;;31.93;21.93
61524;BME280;47393;38.758;-9.164;2022-08-19T08:05:11;100570.88;;;31.14;22.92
61524;BME280;47393;38.758;-9.164;2022-08-19T08:07:30;100593.63;;;31.68;21.93
61524;BME280;47393;38.758;-9.164;2022-08-19T08:09:54;100576.34;;;32.27;21.54
61524;BME280;47393;38.758;-9.164;2022-08-19T08:12:22;100583.22;;;32.45;21.14
61524;BME280;47393;38.758;-9.164;2022-08-19T08:14:27;100586.19;;;32.43;21.12
61524;BME280;47393;38.758;-9.164;2022-08-19T08:16:28;100589.22;;;32.52;20.70
61524;BME280;47393;38.758;-9.164;2022-08-19T08:18:29;100549.31;;;32.84;20.52
61524;BME280;47393;38.758;-9.164;2022-08-19T08:20:30;100559.75;;;33.38;19.68
61524;BME280;47393;38.758;-9.164;2022-08-19T08:22:31;100583.72;;;33.88;19.37
61524;BME280;47393;38.758;-9.164;2022-08-19T08:24:51;100591.41;;;32.55;20.34
61524;BME280;47393;38.758;-9.164;2022-08-19T08:26:52;100583.81;;;32.57;20.82
61524;BME280;47393;38.758;-9.164;2022-08-19T08:28:56;100592.91;;;32.94;20.47
61524;BME280;47393;38.758;-9.164;2022-08-19T08:31:00;100589.44;;;33.29;19.89
61524;BME280;47393;38.758;-9.164;2022-08-19T08:33:04;100593.00;;;33.25;19.93
61524;BME280;47393;38.758;-9.164;2022-08-19T08:35:09;100577.69;;;33.03;20.55
61524;BME280;47393;38.758;-9.164;2022-08-19T08:37:13;100583.69;;;33.00;20.45
61524;BME280;47393;38.758;-9.164;2022-08-19T08:39:17;100594.22;;;31.75;21.24
61524;BME280;47393;38.758;-9.164;2022-08-19T08:43:31;100585.63;;;31.56;21.15
61524;BME280;47393;38.758;-9.164;2022-08-19T08:45:38;100583.81;;;32.57;20.56
61524;BME280;47393;38.758;-9.164;2022-08-19T08:47:48;100602.75;;;33.00;20.01
61524;BME280;47393;38.758;-9.164;2022-08-19T08:50:05;100584.72;;;32.84;19.54
61524;BME280;47393;38.758;-9.164;2022-08-19T08:52:31;100586.13;;;32.28;20.07
61524;BME280;47393;38.758;-9.164;2022-08-19T08:54:43;100581.06;;;31.62;20.93
61524;BME280;47393;38.758;-9.164;2022-08-19T08:56:45;100581.53;;;32.34;20.29
61524;BME280;47393;38.758;-9.164;2022-08-19T08:58:51;100599.47;;;32.93;19.70
61524;BME280;47393;38.758;-9.164;2022-08-19T09:00:55;100589.66;;;32.97;19.75
61524;BME280;47393;38.758;-9.164;2022-08-19T09:02:56;100598.50;;;32.56;20.21
61524;BME280;47393;38.758;-9.164;2022-08-19T09:04:58;100581.22;;;32.25;19.63
61524;BME280;47393;38.758;-9.164;2022-08-19T09:12:04;100594.56;;;31.51;20.93
61524;BME280;47393;38.758;-9.164;2022-08-19T09:16:38;100585.38;;;32.43;20.34
61524;BME280;47393;38.758;-9.164;2022-08-19T09:18:42;100587.69;;;32.14;20.62
61524;BME280;47393;38.758;-9.164;2022-08-19T09:20:43;100593.56;;;33.37;19.86
61524;BME280;47393;38.758;-9.164;2022-08-19T09:22:45;100614.88;;;32.14;20.25
61524;BME280;47393;38.758;-9.164;2022-08-19T09:24:47;100557.19;;;31.69;21.26
61524;BME280;47393;38.758;-9.164;2022-08-19T09:26:47;100596.44;;;32.84;20.43
61524;BME280;47393;38.758;-9.164;2022-08-19T09:28:50;100585.81;;;32.88;20.27
61524;BME280;47393;38.758;-9.164;2022-08-19T09:30:51;100591.34;;;33.86;19.58
61524;BME280;47393;38.758;-9.164;2022-08-19T09:32:53;100586.44;;;33.88;19.98
61524;BME280;47393;38.758;-9.164;2022-08-19T09:34:54;100566.66;;;32.62;20.48
61524;BME280;47393;38.758;-9.164;2022-08-19T09:36:55;100560.56;;;33.23;19.87
61524;BME280;47393;38.758;-9.164;2022-08-19T09:38:55;100590.81;;;33.27;19.94
61524;BME280;47393;38.758;-9.164;2022-08-19T09:41:04;100597.63;;;33.40;20.29
61524;BME280;47393;38.758;-9.164;2022-08-19T09:43:05;100599.78;;;33.74;19.85
61524;BME280;47393;38.758;-9.164;2022-08-19T09:45:06;100591.94;;;34.63;19.28
61524;BME280;47393;38.758;-9.164;2022-08-19T09:47:14;100604.34;;;34.95;18.98
61524;BME280;47393;38.758;-9.164;2022-08-19T09:49:17;100600.38;;;34.72;19.00
61524;BME280;47393;38.758;-9.164;2022-08-19T09:51:23;100612.50;;;34.45;19.29
61524;BME280;47393;38.758;-9.164;2022-08-19T09:53:34;100602.47;;;34.15;19.66
61524;BME280;47393;38.758;-9.164;2022-08-19T09:55:41;100613.34;;;34.36;19.74
61524;BME280;47393;38.758;-9.164;2022-08-19T09:57:42;100591.06;;;34.73;19.39
61524;BME280;47393;38.758;-9.164;2022-08-19T09:59:43;100608.03;;;35.55;18.42
61524;BME280;47393;38.758;-9.164;2022-08-19T10:01:43;100617.75;;;34.92;18.87
61524;BME280;47393;38.758;-9.164;2022-08-19T10:03:48;100590.53;;;33.70;19.76
61524;BME280;47393;38.758;-9.164;2022-08-19T10:05:49;100609.72;;;34.61;18.89
61524;BME280;47393;38.758;-9.164;2022-08-19T10:07:50;100604.16;;;34.76;18.87
61524;BME280;47393;38.758;-9.164;2022-08-19T10:09:50;100629.38;;;35.87;17.95
61524;BME280;47393;38.758;-9.164;2022-08-19T10:11:51;100619.94;;;35.69;18.80
61524;BME280;47393;38.758;-9.164;2022-08-19T10:14:02;100623.81;;;35.97;18.34
61524;BME280;47393;38.758;-9.164;2022-08-19T10:16:10;100610.41;;;35.32;18.60
61524;BME280;47393;38.758;-9.164;2022-08-19T10:18:11;100617.16;;;35.74;18.46
61524;BME280;47393;38.758;-9.164;2022-08-19T10:20:12;100599.84;;;36.37;18.40
61524;BME280;47393;38.758;-9.164;2022-08-19T10:22:12;100612.72;;;35.83;17.78
61524;BME280;47393;38.758;-9.164;2022-08-19T10:24:13;100617.56;;;35.92;18.13
61524;BME280;47393;38.758;-9.164;2022-08-19T10:26:19;100606.75;;;36.78;17.70
61524;BME280;47393;38.758;-9.164;2022-08-19T10:28:20;100621.00;;;37.51;16.94
61524;BME280;47393;38.758;-9.164;2022-08-19T10:30:21;100611.94;;;36.07;17.44
61524;BME280;47393;38.758;-9.164;2022-08-19T10:32:22;100613.59;;;36.32;17.71
61524;BME280;47393;38.758;-9.164;2022-08-19T10:34:23;100618.59;;;36.25;17.98
61524;BME280;47393;38.758;-9.164;2022-08-19T10:36:29;100616.59;;;35.77;17.91
61524;BME280;47393;38.758;-9.164;2022-08-19T10:38:30;100629.09;;;36.85;17.27
61524;BME280;47393;38.758;-9.164;2022-08-19T10:40:31;100624.63;;;36.89;17.14
61524;BME280;47393;38.758;-9.164;2022-08-19T10:42:32;100618.94;;;35.89;17.82
61524;BME280;47393;38.758;-9.164;2022-08-19T10:44:33;100617.88;;;36.14;17.61